XBHLO -KTEB

Flight info

Callsign XBHLO
Flight time N/A
Altitude VFR
Route STYLZ297012
Aircraft AEST/L-VGDW/C

Departure

Time N/A
Airport -

Arrival

Time 2026-05-08 00:19
Airport Teterboro Airport (KTEB)
Time Latitude Longitude Altitude Speed Heading
2026-05-07 22:07 35.47678 -82.49569 4936 ft 167 kts 56°
2026-05-07 22:07 35.48214 -82.48285 5348 ft 170 kts 58°
2026-05-07 22:07 35.48771 -82.47006 5786 ft 169 kts 55°
2026-05-07 22:07 35.49466 -82.45857 6226 ft 171 kts 43°
2026-05-07 22:08 35.50286 -82.44772 6618 ft 174 kts 40°
2026-05-07 22:08 35.51115 -82.43701 6998 ft 172 kts 40°
2026-05-07 22:08 35.51929 -82.42628 7409 ft 170 kts 40°
2026-05-07 22:08 35.52710 -82.41559 7793 ft 168 kts 40°
2026-05-07 22:09 35.53498 -82.40486 8182 ft 170 kts 39°
2026-05-07 22:09 35.54302 -82.39401 8507 ft 175 kts 40°
2026-05-07 22:09 35.55145 -82.38273 8815 ft 182 kts 42°
2026-05-07 22:09 35.55991 -82.37097 9167 ft 185 kts 43°
2026-05-07 22:10 35.56840 -82.35901 9531 ft 187 kts 43°
2026-05-07 22:10 35.57702 -82.34692 9840 ft 189 kts 43°
2026-05-07 22:10 35.58579 -82.33472 10089 ft 190 kts 42°
2026-05-07 22:10 35.59430 -82.32267 10400 ft 186 kts 41°
2026-05-07 22:11 35.60294 -82.31054 10696 ft 191 kts 40°
2026-05-07 22:11 35.61179 -82.29829 11015 ft 192 kts 39°
2026-05-07 22:11 35.62065 -82.28592 11289 ft 194 kts 39°
2026-05-07 22:11 35.62971 -82.27339 11487 ft 199 kts 39°
2026-05-07 22:12 35.63932 -82.26023 11467 ft 214 kts 40°
2026-05-07 22:12 35.64948 -82.24617 11434 ft 225 kts 41°
2026-05-07 22:12 35.66004 -82.23144 11433 ft 233 kts 41°
2026-05-07 22:12 35.67092 -82.21629 11429 ft 238 kts 41°
2026-05-07 22:13 35.68198 -82.20081 11435 ft 242 kts 41°
2026-05-07 22:13 35.69315 -82.18520 11423 ft 244 kts 41°
2026-05-07 22:13 35.70436 -82.16949 11446 ft 244 kts 42°
2026-05-07 22:13 35.71553 -82.15380 11448 ft 244 kts 42°
2026-05-07 22:14 35.72682 -82.13804 11434 ft 246 kts 41°
2026-05-07 22:14 35.73807 -82.12232 11450 ft 244 kts 42°
2026-05-07 22:14 35.74934 -82.10657 11443 ft 245 kts 41°
2026-05-07 22:14 35.76056 -82.09093 11425 ft 244 kts 41°
2026-05-07 22:15 35.77167 -82.07535 11411 ft 244 kts 42°
2026-05-07 22:15 35.78279 -82.05960 11422 ft 243 kts 42°
2026-05-07 22:15 35.79394 -82.04393 11436 ft 242 kts 42°
2026-05-07 22:15 35.80504 -82.02829 11441 ft 243 kts 41°
2026-05-07 22:16 35.81621 -82.01262 11441 ft 244 kts 41°
2026-05-07 22:16 35.82740 -81.99694 11444 ft 244 kts 41°
2026-05-07 22:16 35.83865 -81.98120 11442 ft 245 kts 41°
2026-05-07 22:16 35.84990 -81.96546 11442 ft 245 kts 41°
2026-05-07 22:17 35.86114 -81.94970 11413 ft 245 kts 41°
2026-05-07 22:17 35.87238 -81.93389 11416 ft 245 kts 41°
2026-05-07 22:17 35.88370 -81.91803 11411 ft 246 kts 41°
2026-05-07 22:17 35.89505 -81.90215 11387 ft 247 kts 42°
2026-05-07 22:18 35.90625 -81.88633 11423 ft 244 kts 43°
2026-05-07 22:18 35.92864 -81.85460 11411 ft 245 kts 42°
2026-05-07 22:18 35.93987 -81.83882 11417 ft 245 kts 41°
2026-05-07 22:19 35.95093 -81.82327 11415 ft 243 kts 42°
2026-05-07 22:19 35.96213 -81.80742 11423 ft 245 kts 42°
2026-05-07 22:19 35.97341 -81.79145 11434 ft 247 kts 42°
2026-05-07 22:19 35.98488 -81.77533 11406 ft 251 kts 42°
2026-05-07 22:20 35.99631 -81.75914 11399 ft 250 kts 40°
2026-05-07 22:20 36.00773 -81.74302 11400 ft 250 kts 41°
2026-05-07 22:20 36.01915 -81.72694 11409 ft 248 kts 43°
2026-05-07 22:20 36.03041 -81.71083 11410 ft 247 kts 42°
2026-05-07 22:21 36.04175 -81.69476 11411 ft 248 kts 43°
2026-05-07 22:21 36.05318 -81.67863 11409 ft 250 kts 41°
2026-05-07 22:21 36.06443 -81.66275 11425 ft 247 kts 41°
2026-05-07 22:21 36.07570 -81.64677 11398 ft 245 kts 43°
2026-05-07 22:22 36.08695 -81.63095 11414 ft 245 kts 42°
2026-05-07 22:22 36.09818 -81.61514 11401 ft 244 kts 43°
2026-05-07 22:22 36.10937 -81.59925 11408 ft 244 kts 43°
2026-05-07 22:22 36.12048 -81.58348 11409 ft 243 kts 43°
2026-05-07 22:23 36.13150 -81.56780 11408 ft 242 kts 43°
2026-05-07 22:23 36.14257 -81.55199 11432 ft 243 kts 43°
2026-05-07 22:23 36.15369 -81.53612 11444 ft 244 kts 43°
2026-05-07 22:23 36.16480 -81.52029 11445 ft 243 kts 43°
2026-05-07 22:24 36.17577 -81.50462 11439 ft 243 kts 43°
2026-05-07 22:24 36.18683 -81.48877 11447 ft 244 kts 43°
2026-05-07 22:24 36.19796 -81.47298 11480 ft 243 kts 42°
2026-05-07 22:24 36.20925 -81.45702 11467 ft 248 kts 43°
2026-05-07 22:25 36.22057 -81.44103 11469 ft 247 kts 43°
2026-05-07 22:25 36.23184 -81.42495 11474 ft 247 kts 43°
2026-05-07 22:25 36.24313 -81.40872 11478 ft 249 kts 43°
2026-05-07 22:25 36.25445 -81.39250 11483 ft 248 kts 43°
2026-05-07 22:26 36.26573 -81.37631 11486 ft 248 kts 43°
2026-05-07 22:26 36.27696 -81.36016 11481 ft 246 kts 43°
2026-05-07 22:26 36.28435 -81.34953 11486 ft 245 kts 43°
2026-05-07 22:26 36.29553 -81.33362 11492 ft 245 kts 43°
2026-05-07 22:27 36.31047 -81.31244 11493 ft 246 kts 43°
2026-05-07 22:27 36.31808 -81.30165 11492 ft 246 kts 43°
2026-05-07 22:27 36.32923 -81.28560 11487 ft 244 kts 43°
2026-05-07 22:27 36.34015 -81.26997 11489 ft 243 kts 44°
2026-05-07 22:28 36.35134 -81.25411 11493 ft 244 kts 44°
2026-05-07 22:28 36.36245 -81.23814 11491 ft 245 kts 44°
2026-05-07 22:28 36.37351 -81.22215 11489 ft 244 kts 44°
2026-05-07 22:28 36.38461 -81.20616 11480 ft 245 kts 44°
2026-05-07 22:29 36.39570 -81.19019 11478 ft 243 kts 45°
2026-05-07 22:29 36.40677 -81.17415 11482 ft 244 kts 44°
2026-05-07 22:29 36.41786 -81.15811 11478 ft 244 kts 44°
2026-05-07 22:29 36.42905 -81.14200 11479 ft 248 kts 44°
2026-05-07 22:30 36.44029 -81.12578 11476 ft 247 kts 44°
2026-05-07 22:30 36.45156 -81.10964 11472 ft 247 kts 44°
2026-05-07 22:30 36.46281 -81.09348 11467 ft 248 kts 44°
2026-05-07 22:30 36.47410 -81.07721 11465 ft 248 kts 44°
2026-05-07 22:31 36.48542 -81.06094 11463 ft 248 kts 44°
2026-05-07 22:31 36.49655 -81.04493 11455 ft 248 kts 44°
2026-05-07 22:31 36.50780 -81.02864 11461 ft 247 kts 44°
2026-05-07 22:31 36.51906 -81.01237 11456 ft 248 kts 44°
2026-05-07 22:32 36.53031 -80.99609 11453 ft 249 kts 44°
2026-05-07 22:32 36.54161 -80.97972 11448 ft 249 kts 44°
2026-05-07 22:32 36.55288 -80.96341 11443 ft 248 kts 44°
2026-05-07 22:32 36.56417 -80.94714 11465 ft 248 kts 44°
2026-05-07 22:33 36.57546 -80.93083 11466 ft 249 kts 44°
2026-05-07 22:33 36.58675 -80.91446 11466 ft 249 kts 44°
2026-05-07 22:33 36.59803 -80.89811 11479 ft 249 kts 44°
2026-05-07 22:33 36.60929 -80.88179 11474 ft 248 kts 44°
2026-05-07 22:34 36.62053 -80.86550 11475 ft 248 kts 44°
2026-05-07 22:34 36.63174 -80.84922 11478 ft 248 kts 44°
2026-05-07 22:34 36.64295 -80.83287 11504 ft 248 kts 44°
2026-05-07 22:34 36.65414 -80.81640 11484 ft 249 kts 44°
2026-05-07 22:35 36.66539 -80.80003 11484 ft 248 kts 43°
2026-05-07 22:35 36.67670 -80.78374 11483 ft 248 kts 44°
2026-05-07 22:35 36.68783 -80.76759 11480 ft 248 kts 44°
2026-05-07 22:35 36.69906 -80.75127 11482 ft 248 kts 44°
2026-05-07 22:36 36.71027 -80.73492 11483 ft 248 kts 44°
2026-05-07 22:36 36.72145 -80.71860 11482 ft 248 kts 44°
2026-05-07 22:36 36.73266 -80.70222 11480 ft 248 kts 44°
2026-05-07 22:36 36.74388 -80.68589 11478 ft 248 kts 44°
2026-05-07 22:37 36.75506 -80.66959 11480 ft 247 kts 44°
2026-05-07 22:37 36.76621 -80.65325 11478 ft 247 kts 44°
2026-05-07 22:37 36.77736 -80.63699 11478 ft 246 kts 44°
2026-05-07 22:37 36.78853 -80.62069 11463 ft 246 kts 44°
2026-05-07 22:38 36.79965 -80.60446 11462 ft 247 kts 44°
2026-05-07 22:38 36.81082 -80.58815 11459 ft 247 kts 44°
2026-05-07 22:38 36.82184 -80.57205 11457 ft 247 kts 43°
2026-05-07 22:38 36.83300 -80.55577 11456 ft 246 kts 44°
2026-05-07 22:39 36.84412 -80.53946 11461 ft 246 kts 44°
2026-05-07 22:39 36.85529 -80.52322 11458 ft 247 kts 44°
2026-05-07 22:39 36.86641 -80.50682 11466 ft 247 kts 44°
2026-05-07 22:39 36.87753 -80.49034 11466 ft 248 kts 44°
2026-05-07 22:40 36.88867 -80.47395 11467 ft 248 kts 44°
2026-05-07 22:40 36.89984 -80.45755 11466 ft 247 kts 44°
2026-05-07 22:40 36.91098 -80.44118 11474 ft 247 kts 44°
2026-05-07 22:40 36.92200 -80.42500 11475 ft 247 kts 44°
2026-05-07 22:41 36.93315 -80.40857 11473 ft 248 kts 44°
2026-05-07 22:41 36.94432 -80.39215 11473 ft 248 kts 44°
2026-05-07 22:41 36.95550 -80.37571 11477 ft 248 kts 44°
2026-05-07 22:41 36.96667 -80.35927 11478 ft 247 kts 44°
2026-05-07 22:42 36.97781 -80.34285 11482 ft 248 kts 44°
2026-05-07 22:42 36.98897 -80.32640 11485 ft 248 kts 44°
2026-05-07 22:42 37.00015 -80.30992 11481 ft 248 kts 44°
2026-05-07 22:42 37.01131 -80.29348 11481 ft 248 kts 44°
2026-05-07 22:43 37.02232 -80.27723 11485 ft 248 kts 44°
2026-05-07 22:43 37.03349 -80.26073 11483 ft 249 kts 44°
2026-05-07 22:43 37.04466 -80.24420 11484 ft 248 kts 44°
2026-05-07 22:43 37.05578 -80.22774 11490 ft 248 kts 44°
2026-05-07 22:44 37.06692 -80.21126 11485 ft 248 kts 44°
2026-05-07 22:44 37.07806 -80.19478 11484 ft 247 kts 44°
2026-05-07 22:44 37.08906 -80.17829 11469 ft 245 kts 43°
2026-05-07 22:44 37.09995 -80.16206 11470 ft 243 kts 43°
2026-05-07 22:45 37.11090 -80.14595 11472 ft 243 kts 44°
2026-05-07 22:45 37.12189 -80.12977 11469 ft 244 kts 44°
2026-05-07 22:45 37.13288 -80.11357 11471 ft 244 kts 44°
2026-05-07 22:45 37.14386 -80.09734 11468 ft 243 kts 44°
2026-05-07 22:46 37.15483 -80.08102 11466 ft 246 kts 45°
2026-05-07 22:46 37.16579 -80.06461 11462 ft 245 kts 45°
2026-05-07 22:46 37.17678 -80.04828 11458 ft 244 kts 44°
2026-05-07 22:46 37.18777 -80.03192 11455 ft 245 kts 44°
2026-05-07 22:47 37.19877 -80.01554 11446 ft 246 kts 44°
2026-05-07 22:47 37.20966 -79.99924 11442 ft 246 kts 45°
2026-05-07 22:47 37.22063 -79.98281 11439 ft 245 kts 44°
2026-05-07 22:47 37.23164 -79.96644 11436 ft 245 kts 44°
2026-05-07 22:48 37.24270 -79.95004 11431 ft 246 kts 45°
2026-05-07 22:48 37.25372 -79.93363 11433 ft 246 kts 45°
2026-05-07 22:48 37.26477 -79.91707 11433 ft 246 kts 45°
2026-05-07 22:48 37.27578 -79.90063 11459 ft 246 kts 44°
2026-05-07 22:49 37.28664 -79.88442 11478 ft 245 kts 44°
2026-05-07 22:49 37.29762 -79.86795 11457 ft 246 kts 44°
2026-05-07 22:49 37.30862 -79.85145 11457 ft 246 kts 44°
2026-05-07 22:49 37.31960 -79.83499 11452 ft 245 kts 44°
2026-05-07 22:50 37.33060 -79.81854 11455 ft 245 kts 44°
2026-05-07 22:50 37.34159 -79.80212 11450 ft 245 kts 44°
2026-05-07 22:50 37.35256 -79.78565 11451 ft 247 kts 45°
2026-05-07 22:50 37.36359 -79.76908 11445 ft 246 kts 44°
2026-05-07 22:51 37.37457 -79.75259 11442 ft 245 kts 44°
2026-05-07 22:51 37.38541 -79.73628 11448 ft 246 kts 44°
2026-05-07 22:51 37.39640 -79.71982 11446 ft 246 kts 44°
2026-05-07 22:51 37.40739 -79.70339 11444 ft 246 kts 44°
2026-05-07 22:52 37.41841 -79.68688 11435 ft 246 kts 45°
2026-05-07 22:52 37.42944 -79.67025 11434 ft 247 kts 45°
2026-05-07 22:52 37.44046 -79.65363 11430 ft 248 kts 44°
2026-05-07 22:52 37.45152 -79.63698 11439 ft 248 kts 45°
2026-05-07 22:53 37.46260 -79.62032 11433 ft 248 kts 45°
2026-05-07 22:53 37.47373 -79.60351 11424 ft 249 kts 45°
2026-05-07 22:53 37.48481 -79.58682 11432 ft 248 kts 44°
2026-05-07 22:53 37.49589 -79.57015 11445 ft 248 kts 44°
2026-05-07 22:54 37.50697 -79.55340 11439 ft 250 kts 45°
2026-05-07 22:54 37.51812 -79.53660 11440 ft 250 kts 45°
2026-05-07 22:54 37.52923 -79.51972 11432 ft 250 kts 45°
2026-05-07 22:54 37.54036 -79.50288 11465 ft 250 kts 44°
2026-05-07 22:55 37.55135 -79.48625 11479 ft 250 kts 44°
2026-05-07 22:55 37.56251 -79.46940 11476 ft 250 kts 45°
2026-05-07 22:55 37.57361 -79.45257 11493 ft 249 kts 45°
2026-05-07 22:55 37.58468 -79.43573 11496 ft 249 kts 45°
2026-05-07 22:56 37.59577 -79.41895 11504 ft 250 kts 44°
2026-05-07 22:56 37.60693 -79.40204 11514 ft 250 kts 44°
2026-05-07 22:56 37.61810 -79.38511 11512 ft 251 kts 45°
2026-05-07 22:56 37.62921 -79.36814 11520 ft 250 kts 45°
2026-05-07 22:57 37.64032 -79.35119 11524 ft 251 kts 45°
2026-05-07 22:57 37.65151 -79.33431 11513 ft 250 kts 45°
2026-05-07 22:57 37.66253 -79.31761 11529 ft 250 kts 45°
2026-05-07 22:57 37.67362 -79.30069 11527 ft 250 kts 45°
2026-05-07 22:58 37.68472 -79.28377 11531 ft 249 kts 44°
2026-05-07 22:58 37.69582 -79.26688 11533 ft 250 kts 45°
2026-05-07 22:58 37.70692 -79.24986 11541 ft 251 kts 45°
2026-05-07 22:58 37.71796 -79.23285 11526 ft 250 kts 44°
2026-05-07 22:59 37.72910 -79.21588 11521 ft 251 kts 44°
2026-05-07 22:59 37.74019 -79.19914 11518 ft 246 kts 44°
2026-05-07 22:59 37.75116 -79.18245 11509 ft 248 kts 44°
2026-05-07 22:59 37.76218 -79.16565 11503 ft 247 kts 44°
2026-05-07 23:00 37.77301 -79.14911 11501 ft 246 kts 44°
2026-05-07 23:00 37.78394 -79.13233 11495 ft 248 kts 44°
2026-05-07 23:00 37.79493 -79.11545 11489 ft 248 kts 44°
2026-05-07 23:00 37.80590 -79.09855 11482 ft 249 kts 45°
2026-05-07 23:01 37.81685 -79.08157 11479 ft 249 kts 44°
2026-05-07 23:01 37.82793 -79.06470 11457 ft 249 kts 44°
2026-05-07 23:01 37.83906 -79.04792 11448 ft 249 kts 44°
2026-05-07 23:01 37.85015 -79.03110 11442 ft 248 kts 44°
2026-05-07 23:02 37.86118 -79.01429 11441 ft 249 kts 45°
2026-05-07 23:02 37.87226 -78.99729 11435 ft 251 kts 45°
2026-05-07 23:02 37.88329 -78.98035 11431 ft 246 kts 46°
2026-05-07 23:02 37.89403 -78.96345 11458 ft 247 kts 46°
2026-05-07 23:03 37.90488 -78.94651 11437 ft 246 kts 46°
2026-05-07 23:03 37.91564 -78.92989 11440 ft 248 kts 45°
2026-05-07 23:03 37.92661 -78.91321 11441 ft 246 kts 44°
2026-05-07 23:03 37.93768 -78.89638 11441 ft 249 kts 44°
2026-05-07 23:04 37.94868 -78.87947 11441 ft 248 kts 45°
2026-05-07 23:04 37.95959 -78.86254 11451 ft 248 kts 45°
2026-05-07 23:04 37.97060 -78.84560 11432 ft 249 kts 45°
2026-05-07 23:04 37.98153 -78.82866 11440 ft 248 kts 45°
2026-05-07 23:05 37.99248 -78.81164 11450 ft 249 kts 45°
2026-05-07 23:05 38.00352 -78.79463 11444 ft 250 kts 45°
2026-05-07 23:05 38.01456 -78.77762 11442 ft 250 kts 45°
2026-05-07 23:05 38.02558 -78.76056 11446 ft 250 kts 45°
2026-05-07 23:06 38.03662 -78.74351 11444 ft 250 kts 45°
2026-05-07 23:06 38.04752 -78.72669 11446 ft 250 kts 45°
2026-05-07 23:06 38.05856 -78.70963 11443 ft 250 kts 45°
2026-05-07 23:06 38.06956 -78.69256 11446 ft 250 kts 45°
2026-05-07 23:07 38.08055 -78.67554 11444 ft 250 kts 45°
2026-05-07 23:07 38.09160 -78.65843 11446 ft 251 kts 45°
2026-05-07 23:07 38.10265 -78.64134 11457 ft 250 kts 45°
2026-05-07 23:07 38.11361 -78.62421 11449 ft 250 kts 45°
2026-05-07 23:08 38.12456 -78.60709 11448 ft 250 kts 45°
2026-05-07 23:08 38.13558 -78.58993 11445 ft 250 kts 45°
2026-05-07 23:08 38.14661 -78.57280 11447 ft 250 kts 45°
2026-05-07 23:08 38.15763 -78.55566 11445 ft 250 kts 45°
2026-05-07 23:09 38.16864 -78.53852 11444 ft 249 kts 45°
2026-05-07 23:09 38.17960 -78.52140 11446 ft 250 kts 45°
2026-05-07 23:09 38.19056 -78.50429 11444 ft 250 kts 45°
2026-05-07 23:09 38.20157 -78.48715 11446 ft 250 kts 45°
2026-05-07 23:10 38.21254 -78.47000 11448 ft 250 kts 45°
2026-05-07 23:10 38.22337 -78.45310 11446 ft 250 kts 45°
2026-05-07 23:10 38.23439 -78.43592 11447 ft 250 kts 45°
2026-05-07 23:10 38.24539 -78.41873 11444 ft 250 kts 45°
2026-05-07 23:11 38.25636 -78.40159 11446 ft 250 kts 45°
2026-05-07 23:11 38.26733 -78.38444 11447 ft 249 kts 45°
2026-05-07 23:11 38.27828 -78.36731 11445 ft 249 kts 45°
2026-05-07 23:11 38.28919 -78.35015 11446 ft 249 kts 45°
2026-05-07 23:12 38.29994 -78.33327 11450 ft 249 kts 45°
2026-05-07 23:12 38.31085 -78.31617 11464 ft 248 kts 45°
2026-05-07 23:12 38.32168 -78.29914 11443 ft 247 kts 45°
2026-05-07 23:12 38.33248 -78.28219 11437 ft 246 kts 45°
2026-05-07 23:13 38.34327 -78.26527 11437 ft 246 kts 45°
2026-05-07 23:13 38.35402 -78.24835 11441 ft 245 kts 45°
2026-05-07 23:13 38.36477 -78.23150 11440 ft 244 kts 45°
2026-05-07 23:13 38.37546 -78.21467 11440 ft 244 kts 45°
2026-05-07 23:14 38.38614 -78.19786 11439 ft 244 kts 45°
2026-05-07 23:14 38.39320 -78.18671 11440 ft 244 kts 45°
2026-05-07 23:14 38.40389 -78.16987 11443 ft 244 kts 45°
2026-05-07 23:14 38.41457 -78.15306 11439 ft 244 kts 45°
2026-05-07 23:15 38.42520 -78.13628 11441 ft 242 kts 45°
2026-05-07 23:15 38.43584 -78.11954 11438 ft 243 kts 45°
2026-05-07 23:15 38.44651 -78.10275 11445 ft 244 kts 45°
2026-05-07 23:15 38.45735 -78.08621 11451 ft 244 kts 39°
2026-05-07 23:16 38.47027 -78.07237 11434 ft 240 kts 31°
2026-05-07 23:16 38.48441 -78.06140 11459 ft 235 kts 16°
2026-05-07 23:16 38.49914 -78.05263 11405 ft 231 kts 22°
2026-05-07 23:16 38.51111 -78.03904 11480 ft 232 kts 39°
2026-05-07 23:17 38.52216 -78.02382 11445 ft 235 kts 40°
2026-05-07 23:17 38.53325 -78.00843 11441 ft 236 kts 43°
2026-05-07 23:17 38.54077 -77.99043 11461 ft 235 kts 70°
2026-05-07 23:17 38.54513 -77.96997 11443 ft 241 kts 73°
2026-05-07 23:18 38.54942 -77.94913 11449 ft 245 kts 73°
2026-05-07 23:18 38.55387 -77.92793 11447 ft 248 kts 74°
2026-05-07 23:18 38.55996 -77.90734 11439 ft 247 kts 54°
2026-05-07 23:18 38.57192 -77.89220 11459 ft 241 kts 25°
2026-05-07 23:19 38.58721 -77.88511 11444 ft 228 kts 359°
2026-05-07 23:19 38.60265 -77.88296 11433 ft 219 kts 354°
2026-05-07 23:19 38.61773 -77.88125 11445 ft 216 kts 353°
2026-05-07 23:19 38.63250 -77.87949 11418 ft 215 kts 357°
2026-05-07 23:20 38.64625 -77.87204 11445 ft 220 kts 25°
2026-05-07 23:20 38.65743 -77.85815 11481 ft 228 kts 41°
2026-05-07 23:20 38.66780 -77.84230 11450 ft 235 kts 45°
2026-05-07 23:20 38.67798 -77.82575 11440 ft 238 kts 46°
2026-05-07 23:21 38.68815 -77.80876 11438 ft 240 kts 47°
2026-05-07 23:21 38.69829 -77.79170 11438 ft 242 kts 47°
2026-05-07 23:21 38.70856 -77.77448 11426 ft 244 kts 47°
2026-05-07 23:21 38.71886 -77.75732 11445 ft 242 kts 47°
2026-05-07 23:22 38.72900 -77.74047 11434 ft 243 kts 46°
2026-05-07 23:22 38.73948 -77.72314 11430 ft 242 kts 46°
2026-05-07 23:22 38.74968 -77.70629 11430 ft 242 kts 46°
2026-05-07 23:22 38.76004 -77.68922 11427 ft 243 kts 46°
2026-05-07 23:23 38.77041 -77.67216 11424 ft 243 kts 46°
2026-05-07 23:23 38.78083 -77.65504 11430 ft 242 kts 46°
2026-05-07 23:23 38.79119 -77.63802 11428 ft 242 kts 46°
2026-05-07 23:23 38.80156 -77.62096 11430 ft 243 kts 46°
2026-05-07 23:24 38.81193 -77.60390 11432 ft 243 kts 46°
2026-05-07 23:24 38.82234 -77.58677 11430 ft 247 kts 46°
2026-05-07 23:24 38.83298 -77.56922 11428 ft 249 kts 46°
2026-05-07 23:24 38.84365 -77.55163 11428 ft 250 kts 46°
2026-05-07 23:25 38.85417 -77.53430 11413 ft 249 kts 46°
2026-05-07 23:25 38.86487 -77.51671 11411 ft 250 kts 46°
2026-05-07 23:25 38.87557 -77.49907 11410 ft 250 kts 46°
2026-05-07 23:25 38.88626 -77.48143 11409 ft 250 kts 46°
2026-05-07 23:26 38.89693 -77.46381 11409 ft 250 kts 46°
2026-05-07 23:26 38.90751 -77.44627 11418 ft 246 kts 46°
2026-05-07 23:26 38.91799 -77.42889 11406 ft 246 kts 46°
2026-05-07 23:26 38.92848 -77.41153 11407 ft 245 kts 46°
2026-05-07 23:27 38.94940 -77.37695 11408 ft 244 kts 46°
2026-05-07 23:27 38.95972 -77.35989 11410 ft 245 kts 46°
2026-05-07 23:27 38.97015 -77.34263 11409 ft 245 kts 46°
2026-05-07 23:28 38.98057 -77.32536 11409 ft 244 kts 46°
2026-05-07 23:28 38.99101 -77.30806 11412 ft 244 kts 46°
2026-05-07 23:28 39.00084 -77.29173 11412 ft 244 kts 46°
2026-05-07 23:28 39.01163 -77.27375 11412 ft 244 kts 46°
2026-05-07 23:29 39.02201 -77.25649 11421 ft 244 kts 46°
2026-05-07 23:29 39.03229 -77.23940 11422 ft 244 kts 46°
2026-05-07 23:29 39.04253 -77.22243 11390 ft 247 kts 46°
2026-05-07 23:29 39.05312 -77.20489 11419 ft 248 kts 46°
2026-05-07 23:30 39.06370 -77.18729 11420 ft 249 kts 46°
2026-05-07 23:30 39.07426 -77.16961 11420 ft 249 kts 46°
2026-05-07 23:30 39.08427 -77.15288 11415 ft 249 kts 46°
2026-05-07 23:30 39.09484 -77.13524 11438 ft 246 kts 46°
2026-05-07 23:31 39.10526 -77.11785 11424 ft 244 kts 46°
2026-05-07 23:31 39.11554 -77.10074 11420 ft 245 kts 46°
2026-05-07 23:31 39.12592 -77.08334 11416 ft 244 kts 46°
2026-05-07 23:31 39.13626 -77.06600 11422 ft 244 kts 46°
2026-05-07 23:32 39.14665 -77.04860 11416 ft 244 kts 46°
2026-05-07 23:32 39.15641 -77.03225 11419 ft 244 kts 46°
2026-05-07 23:32 39.16677 -77.01486 11424 ft 244 kts 46°
2026-05-07 23:32 39.17712 -76.99750 11419 ft 244 kts 46°
2026-05-07 23:33 39.18746 -76.98024 11422 ft 244 kts 46°
2026-05-07 23:33 39.19776 -76.96292 11423 ft 243 kts 46°
2026-05-07 23:33 39.20807 -76.94562 11423 ft 243 kts 46°
2026-05-07 23:33 39.21824 -76.92857 11421 ft 243 kts 46°
2026-05-07 23:34 39.22852 -76.91131 11419 ft 242 kts 46°
2026-05-07 23:34 39.23867 -76.89424 11417 ft 243 kts 47°
2026-05-07 23:34 39.24893 -76.87693 11420 ft 243 kts 47°
2026-05-07 23:34 39.25923 -76.85953 11402 ft 246 kts 46°
2026-05-07 23:35 39.26964 -76.84188 11407 ft 248 kts 46°
2026-05-07 23:35 39.28013 -76.82420 11420 ft 247 kts 46°
2026-05-07 23:35 39.29055 -76.80674 11414 ft 244 kts 46°
2026-05-07 23:35 39.30095 -76.78937 11395 ft 244 kts 46°
2026-05-07 23:36 39.31128 -76.77200 11407 ft 244 kts 47°
2026-05-07 23:36 39.32150 -76.75469 11400 ft 245 kts 47°
2026-05-07 23:36 39.33191 -76.73701 11403 ft 244 kts 46°
2026-05-07 23:36 39.34207 -76.71981 11404 ft 244 kts 47°
2026-05-07 23:37 39.35239 -76.70239 11403 ft 244 kts 46°
2026-05-07 23:37 39.36266 -76.68498 11401 ft 244 kts 47°
2026-05-07 23:37 39.37298 -76.66748 11403 ft 244 kts 47°
2026-05-07 23:37 39.38327 -76.65004 11402 ft 244 kts 47°
2026-05-07 23:38 39.39354 -76.63263 11405 ft 243 kts 46°
2026-05-07 23:38 39.40384 -76.61518 11404 ft 244 kts 46°
2026-05-07 23:38 39.41414 -76.59773 11405 ft 244 kts 47°
2026-05-07 23:38 39.42444 -76.58025 11406 ft 244 kts 47°
2026-05-07 23:39 39.43474 -76.56275 11398 ft 245 kts 47°
2026-05-07 23:39 39.44501 -76.54520 11403 ft 244 kts 47°
2026-05-07 23:39 39.45531 -76.52764 11399 ft 244 kts 47°
2026-05-07 23:39 39.46563 -76.51016 11419 ft 244 kts 47°
2026-05-07 23:40 39.47592 -76.49267 11398 ft 245 kts 47°
2026-05-07 23:40 39.48624 -76.47506 11402 ft 245 kts 47°
2026-05-07 23:40 39.49655 -76.45749 11401 ft 245 kts 47°
2026-05-07 23:40 39.50676 -76.44015 11401 ft 245 kts 47°
2026-05-07 23:41 39.51704 -76.42258 11401 ft 245 kts 47°
2026-05-07 23:41 39.52733 -76.40492 11400 ft 245 kts 47°
2026-05-07 23:41 39.53761 -76.38738 11400 ft 244 kts 47°
2026-05-07 23:41 39.54789 -76.36983 11401 ft 244 kts 47°
2026-05-07 23:42 39.55816 -76.35224 11395 ft 245 kts 47°
2026-05-07 23:42 39.56843 -76.33463 11400 ft 244 kts 47°
2026-05-07 23:42 39.57869 -76.31707 11396 ft 244 kts 47°
2026-05-07 23:42 39.58894 -76.29953 11394 ft 244 kts 47°
2026-05-07 23:43 39.59917 -76.28202 11424 ft 243 kts 47°
2026-05-07 23:43 39.60932 -76.26460 11493 ft 241 kts 47°
2026-05-07 23:43 39.61941 -76.24725 11514 ft 242 kts 47°
2026-05-07 23:43 39.62961 -76.22972 11494 ft 244 kts 47°
2026-05-07 23:44 39.63984 -76.21217 11496 ft 244 kts 47°
2026-05-07 23:44 39.64992 -76.19484 11504 ft 244 kts 47°
2026-05-07 23:44 39.66013 -76.17731 11494 ft 243 kts 47°
2026-05-07 23:44 39.67029 -76.15983 11498 ft 242 kts 47°
2026-05-07 23:45 39.68044 -76.14230 11482 ft 243 kts 47°
2026-05-07 23:45 39.69061 -76.12479 11492 ft 243 kts 47°
2026-05-07 23:45 39.70083 -76.10728 11492 ft 243 kts 47°
2026-05-07 23:45 39.71103 -76.08973 11492 ft 243 kts 47°
2026-05-07 23:46 39.72122 -76.07214 11490 ft 244 kts 47°
2026-05-07 23:46 39.73139 -76.05452 11492 ft 244 kts 47°
2026-05-07 23:46 39.74157 -76.03689 11493 ft 244 kts 47°
2026-05-07 23:46 39.75177 -76.01928 11493 ft 244 kts 47°
2026-05-07 23:47 39.76183 -76.00187 11492 ft 244 kts 47°
2026-05-07 23:47 39.77202 -75.98424 11493 ft 244 kts 47°
2026-05-07 23:47 39.78219 -75.96659 11493 ft 244 kts 47°
2026-05-07 23:47 39.79242 -75.94894 11489 ft 244 kts 47°
2026-05-07 23:48 39.80258 -75.93134 11489 ft 243 kts 47°
2026-05-07 23:48 39.81274 -75.91367 11489 ft 244 kts 47°
2026-05-07 23:48 39.82288 -75.89605 11491 ft 243 kts 47°
2026-05-07 23:48 39.83307 -75.87839 11493 ft 244 kts 47°
2026-05-07 23:49 39.84324 -75.86075 11490 ft 243 kts 47°
2026-05-07 23:49 39.85325 -75.84332 11488 ft 243 kts 47°
2026-05-07 23:49 39.86336 -75.82565 11491 ft 243 kts 47°
2026-05-07 23:49 39.87347 -75.80803 11492 ft 243 kts 47°
2026-05-07 23:50 39.88363 -75.79040 11493 ft 242 kts 48°
2026-05-07 23:50 39.89381 -75.77269 11481 ft 245 kts 47°
2026-05-07 23:50 39.90404 -75.75491 11493 ft 246 kts 47°
2026-05-07 23:50 39.91431 -75.73704 11494 ft 246 kts 48°
2026-05-07 23:51 39.92455 -75.71914 11512 ft 247 kts 48°
2026-05-07 23:51 39.93481 -75.70120 11511 ft 247 kts 48°
2026-05-07 23:51 39.94511 -75.68324 11511 ft 247 kts 48°
2026-05-07 23:51 39.95541 -75.66524 11512 ft 248 kts 48°
2026-05-07 23:52 39.96567 -75.64724 11513 ft 247 kts 48°
2026-05-07 23:52 39.97593 -75.62923 11511 ft 247 kts 48°
2026-05-07 23:52 39.98624 -75.61119 11508 ft 248 kts 47°
2026-05-07 23:52 39.99642 -75.59344 11509 ft 247 kts 48°
2026-05-07 23:53 40.00672 -75.57540 11533 ft 246 kts 48°
2026-05-07 23:53 40.01691 -75.55754 11511 ft 245 kts 48°
2026-05-07 23:53 40.02707 -75.53970 11508 ft 244 kts 48°
2026-05-07 23:53 40.03716 -75.52194 11507 ft 244 kts 48°
2026-05-07 23:54 40.04725 -75.50418 11511 ft 244 kts 48°
2026-05-07 23:54 40.05735 -75.48641 11509 ft 243 kts 48°
2026-05-07 23:54 40.06746 -75.46866 11508 ft 243 kts 48°
2026-05-07 23:54 40.07755 -75.45090 11510 ft 243 kts 48°
2026-05-07 23:55 40.08762 -75.43318 11498 ft 243 kts 48°
2026-05-07 23:55 40.09773 -75.41541 11491 ft 244 kts 48°
2026-05-07 23:55 40.10785 -75.39760 11502 ft 244 kts 48°
2026-05-07 23:55 40.11799 -75.37973 11502 ft 244 kts 48°
2026-05-07 23:56 40.12798 -75.36211 11502 ft 244 kts 48°
2026-05-07 23:56 40.13806 -75.34424 11503 ft 244 kts 49°
2026-05-07 23:56 40.14814 -75.32639 11498 ft 244 kts 48°
2026-05-07 23:56 40.15826 -75.30851 11498 ft 244 kts 48°
2026-05-07 23:57 40.16837 -75.29066 11501 ft 245 kts 49°
2026-05-07 23:57 40.17849 -75.27278 11501 ft 244 kts 49°
2026-05-07 23:57 40.18856 -75.25497 11511 ft 242 kts 49°
2026-05-07 23:57 40.19862 -75.23718 11504 ft 243 kts 49°
2026-05-07 23:58 40.20862 -75.21943 11503 ft 242 kts 49°
2026-05-07 23:58 40.21863 -75.20165 11502 ft 242 kts 49°
2026-05-07 23:58 40.22861 -75.18391 11499 ft 242 kts 49°
2026-05-07 23:58 40.23856 -75.16620 11471 ft 241 kts 49°
2026-05-07 23:59 40.24846 -75.14853 11474 ft 240 kts 49°
2026-05-07 23:59 40.25834 -75.13093 11474 ft 240 kts 49°
2026-05-07 23:59 40.26488 -75.11930 11475 ft 239 kts 49°
2026-05-07 23:59 40.27797 -75.09602 11471 ft 239 kts 49°
2026-05-08 00:00 40.28786 -75.07845 11414 ft 242 kts 49°
2026-05-08 00:00 40.29792 -75.06055 11303 ft 245 kts 49°
2026-05-08 00:00 40.30803 -75.04254 11179 ft 246 kts 49°
2026-05-08 00:00 40.31491 -75.03021 11064 ft 248 kts 49°
2026-05-08 00:01 40.32513 -75.01189 10907 ft 250 kts 49°
2026-05-08 00:01 40.33548 -74.99339 10711 ft 253 kts 49°
2026-05-08 00:01 40.34582 -74.97487 10576 ft 251 kts 49°
2026-05-08 00:01 40.35597 -74.95673 10441 ft 250 kts 49°
2026-05-08 00:02 40.36626 -74.93850 10314 ft 246 kts 49°
2026-05-08 00:02 40.37644 -74.92033 10092 ft 247 kts 50°
2026-05-08 00:02 40.38659 -74.90217 9902 ft 246 kts 49°
2026-05-08 00:02 40.39666 -74.88413 9725 ft 244 kts 50°
2026-05-08 00:03 40.40665 -74.86618 9537 ft 243 kts 50°
2026-05-08 00:03 40.41661 -74.84836 9338 ft 241 kts 50°
2026-05-08 00:03 40.42647 -74.83061 9129 ft 240 kts 50°
2026-05-08 00:03 40.43616 -74.81319 8926 ft 239 kts 50°
2026-05-08 00:04 40.44592 -74.79571 8707 ft 237 kts 50°
2026-05-08 00:04 40.45558 -74.77837 8490 ft 233 kts 50°
2026-05-08 00:04 40.46509 -74.76121 8248 ft 231 kts 50°
2026-05-08 00:04 40.47451 -74.74423 7999 ft 230 kts 51°
2026-05-08 00:05 40.48391 -74.72730 7739 ft 228 kts 51°
2026-05-08 00:05 40.49324 -74.71049 7488 ft 227 kts 51°
2026-05-08 00:05 40.50249 -74.69382 7259 ft 225 kts 51°
2026-05-08 00:05 40.51166 -74.67728 7031 ft 223 kts 51°
2026-05-08 00:06 40.52076 -74.66082 6808 ft 222 kts 52°
2026-05-08 00:06 40.52981 -74.64444 6576 ft 220 kts 52°
2026-05-08 00:06 40.53887 -74.62808 6384 ft 221 kts 52°
2026-05-08 00:06 40.54788 -74.61176 6177 ft 220 kts 52°
2026-05-08 00:07 40.55684 -74.59549 5969 ft 219 kts 52°
2026-05-08 00:07 40.56577 -74.57932 5755 ft 218 kts 52°
2026-05-08 00:07 40.57466 -74.56320 5550 ft 217 kts 52°
2026-05-08 00:07 40.58346 -74.54723 5470 ft 211 kts 52°
2026-05-08 00:08 40.59196 -74.53182 5483 ft 208 kts 52°
2026-05-08 00:08 40.60052 -74.51645 5511 ft 209 kts 52°
2026-05-08 00:08 40.60915 -74.50092 5507 ft 211 kts 52°
2026-05-08 00:08 40.61782 -74.48524 5503 ft 213 kts 52°
2026-05-08 00:09 40.62656 -74.46939 5498 ft 214 kts 52°
2026-05-08 00:09 40.63532 -74.45348 5507 ft 215 kts 52°
2026-05-08 00:09 40.64412 -74.43748 5514 ft 216 kts 52°
2026-05-08 00:09 40.65296 -74.42139 5494 ft 217 kts 52°
2026-05-08 00:10 40.66138 -74.40499 5503 ft 216 kts 63°
2026-05-08 00:10 40.66445 -74.38581 5522 ft 216 kts 89°
2026-05-08 00:10 40.66413 -74.36583 5501 ft 219 kts 89°
2026-05-08 00:10 40.66643 -74.34615 5514 ft 218 kts 71°
2026-05-08 00:11 40.67181 -74.32753 5519 ft 217 kts 65°
2026-05-08 00:11 40.68050 -74.31159 5442 ft 218 kts 44°
2026-05-08 00:11 40.69109 -74.29745 5295 ft 216 kts 45°
2026-05-08 00:11 40.70133 -74.28297 5066 ft 215 kts 46°
2026-05-08 00:12 40.71123 -74.26860 4853 ft 208 kts 46°
2026-05-08 00:12 40.72253 -74.25785 4664 ft 194 kts 18°
2026-05-08 00:12 40.73528 -74.25654 4443 ft 179 kts 345°
2026-05-08 00:12 40.74568 -74.26403 4222 ft 166 kts 312°
2026-05-08 00:13 40.75053 -74.27723 3965 ft 160 kts 277°
2026-05-08 00:13 40.74842 -74.29135 3701 ft 160 kts 243°
2026-05-08 00:13 40.74024 -74.30125 3422 ft 164 kts 207°
2026-05-08 00:13 40.72889 -74.30328 3155 ft 171 kts 171°
2026-05-08 00:14 40.71847 -74.29648 2909 ft 173 kts 136°
2026-05-08 00:14 40.71246 -74.28303 2723 ft 171 kts 102°
2026-05-08 00:14 40.71226 -74.26782 2597 ft 166 kts 71°
2026-05-08 00:14 40.71834 -74.25528 2464 ft 164 kts 40°
2026-05-08 00:15 40.72713 -74.24479 2354 ft 176 kts 40°
2026-05-08 00:15 40.73597 -74.23306 2263 ft 185 kts 44°
2026-05-08 00:15 40.74471 -74.22029 2180 ft 190 kts 46°
2026-05-08 00:15 40.75331 -74.20679 2112 ft 193 kts 49°
2026-05-08 00:16 40.76225 -74.19355 2061 ft 194 kts 45°
2026-05-08 00:16 40.77144 -74.18039 1965 ft 196 kts 45°
2026-05-08 00:16 40.78057 -74.16718 1892 ft 192 kts 46°
2026-05-08 00:16 40.78936 -74.15435 1755 ft 183 kts 45°
2026-05-08 00:17 40.79785 -74.14198 1538 ft 181 kts 46°
2026-05-08 00:17 40.80631 -74.12961 1302 ft 179 kts 46°
2026-05-08 00:17 40.81453 -74.11756 1040 ft 175 kts 46°
2026-05-08 00:17 40.82254 -74.10584 788 ft 170 kts 46°
2026-05-08 00:18 40.82981 -74.09511 552 ft 136 kts 46°
2026-05-08 00:18 40.83541 -74.08686 353 ft 106 kts 44°
2026-05-08 00:18 40.83977 -74.08041 195 ft 87 kts 43°
2026-05-08 00:18 40.84382 -74.07454 100 ft 87 kts 43°
2026-05-08 00:19 40.84781 -74.06867 27 ft 82 kts 45°
2026-05-08 00:19 40.85099 -74.06408 14 ft 54 kts 49°
2026-05-08 00:19 40.85277 -74.06175 10 ft 9 kts 329°
2026-05-08 00:19 40.85299 -74.06235 10 ft 8 kts 313°
2026-05-08 00:20 40.85333 -74.06279 14 ft 6 kts 31°
2026-05-08 00:20 40.85362 -74.06234 10 ft 7 kts 48°
2026-05-08 00:20 40.85396 -74.06184 10 ft 8 kts 49°
2026-05-08 00:20 40.85433 -74.06129 10 ft 8 kts 47°
2026-05-08 00:21 40.85476 -74.06071 10 ft 9 kts 33°
2026-05-08 00:21 40.85540 -74.06060 10 ft 9 kts 360°
2026-05-08 00:21 40.85576 -74.06067 10 ft 3 kts 286°
2026-05-08 00:21 40.85580 -74.06129 10 ft 8 kts 277°
2026-05-08 00:22 40.85598 -74.06201 10 ft 8 kts 244°
2026-05-08 00:22 40.85565 -74.06262 10 ft 9 kts 297°
2026-05-08 00:22 40.85575 -74.06281 14 ft 0 kts 303°